Sallum Plateau, Egypt
Current Conditions -  °F | °C
As of 8:00 PM on Sunday 21 Dec 2014 (Local Time) from HEMM Reporting Station
Few Clouds Few Clouds  
Wind Chill: 16°   Ceiling: Unl
Heat Index: 16°   Visibility: 6mi
Dew Point: 10°   Wind: 10mph
Humidity: 68%   Direction: 270°W
Pressure: 30.21"   Gusts: NA
Location:  31.57°N, 25.13°E
Report Text: HEMM 211800Z 27009KT 9999 FEW020 16/10 Q1023 NOSIG
Loading
Personal Weather Stations






























Interactive Weather Map New forecast layout! Learn more

10-Day Weather Forecast

Advertisements
Track Severe Weather on mobile